createdAt,value
2019-05-06T00:00:34.636Z,7.30
2019-05-06T00:03:05.065Z,7.03
2019-05-06T00:05:34.784Z,6.90
2019-05-06T00:08:04.305Z,7.00
2019-05-06T00:10:35.894Z,7.23
2019-05-06T00:13:05.477Z,7.73
2019-05-06T00:15:35.532Z,7.30
2019-05-06T00:18:05.096Z,7.43
2019-05-06T00:20:35.169Z,7.63
2019-05-06T00:23:09.349Z,7.50
2019-05-06T00:25:46.662Z,7.53
2019-05-06T00:28:29.965Z,8.07
2019-05-06T00:31:12.121Z,7.77
2019-05-06T00:33:33.996Z,8.03
2019-05-06T00:36:04.730Z,7.90
2019-05-06T00:38:37.312Z,7.80
2019-05-06T00:41:24.684Z,7.80
2019-05-06T00:43:54.714Z,7.40
2019-05-06T00:46:24.431Z,8.17
2019-05-06T00:48:54.394Z,8.10
2019-05-06T00:51:24.461Z,8.03
2019-05-06T00:54:05.065Z,8.40
2019-05-06T00:56:36.142Z,8.27
2019-05-06T00:59:05.546Z,7.80
2019-05-06T01:01:34.995Z,7.97
2019-05-06T01:04:05.157Z,7.83
2019-05-06T01:06:34.765Z,6.90
2019-05-06T01:09:08.466Z,7.13
2019-05-06T01:11:37.912Z,6.80
2019-05-06T01:14:09.199Z,6.80
2019-05-06T01:16:38.658Z,6.57
2019-05-06T01:19:08.051Z,6.47
2019-05-06T01:21:37.480Z,6.17
2019-05-06T01:24:06.873Z,6.17
2019-05-06T01:26:36.330Z,6.33
2019-05-06T01:29:05.810Z,6.73
2019-05-06T01:31:42.768Z,6.10
2019-05-06T01:34:06.427Z,6.03
2019-05-06T01:36:35.863Z,6.03
2019-05-06T01:39:18.127Z,7.13
2019-05-06T01:41:54.997Z,6.53
2019-05-06T01:44:24.592Z,6.53
2019-05-06T01:46:54.292Z,7.37
2019-05-06T01:49:25.710Z,6.57
2019-05-06T01:51:55.181Z,6.80
2019-05-06T01:54:25.008Z,7.17
2019-05-06T01:56:55.035Z,6.20
2019-05-06T01:59:24.847Z,5.83
2019-05-06T02:02:00.117Z,5.90
2019-05-06T02:04:25.524Z,6.23
2019-05-06T02:06:54.926Z,5.97
2019-05-06T02:09:24.851Z,6.10
2019-05-06T02:11:54.336Z,6.30
2019-05-06T02:14:24.668Z,5.90
2019-05-06T02:16:56.181Z,6.13
2019-05-06T02:19:25.687Z,5.90
2019-05-06T02:21:56.734Z,6.03
2019-05-06T02:24:27.808Z,5.63
2019-05-06T02:26:57.282Z,5.77
2019-05-06T02:29:28.365Z,6.47
2019-05-06T02:32:21.052Z,6.53
2019-05-06T02:34:38.339Z,6.20
2019-05-06T02:37:15.653Z,5.77
2019-05-06T02:39:45.113Z,6.13
2019-05-06T02:42:14.516Z,6.57
2019-05-06T02:44:44.454Z,6.03
2019-05-06T02:47:15.555Z,5.83
2019-05-06T02:49:49.318Z,6.17
2019-05-06T02:52:18.805Z,6.33
2019-05-06T02:54:48.254Z,6.70
2019-05-06T02:57:18.021Z,6.27
2019-05-06T02:59:47.467Z,6.70
2019-05-06T03:02:34.356Z,5.93
2019-05-06T03:04:48.207Z,6.80
2019-05-06T03:07:17.655Z,6.37
2019-05-06T03:09:47.244Z,6.20
2019-05-06T03:12:16.906Z,6.07
2019-05-06T03:14:46.366Z,6.50
2019-05-06T03:17:17.447Z,6.50
2019-05-06T03:19:48.641Z,6.23
2019-05-06T03:22:34.523Z,6.43
2019-05-06T03:25:06.986Z,6.07
2019-05-06T03:27:35.726Z,6.83
2019-05-06T03:30:07.184Z,6.97
2019-05-06T03:32:48.183Z,6.60
2019-05-06T03:35:31.237Z,6.37
2019-05-06T03:37:39.829Z,6.40
2019-05-06T03:40:09.595Z,6.33
2019-05-06T03:42:38.992Z,6.17
2019-05-06T03:45:13.029Z,6.37
2019-05-06T03:47:43.604Z,6.37
2019-05-06T03:50:13.608Z,6.50
2019-05-06T03:52:44.291Z,6.40
2019-05-06T03:55:14.064Z,6.10
2019-05-06T03:57:43.908Z,6.97
2019-05-06T04:00:16.017Z,5.93
2019-05-06T04:02:45.962Z,6.07
2019-05-06T04:05:15.442Z,5.73
2019-05-06T04:07:46.892Z,6.30
2019-05-06T04:10:16.691Z,6.70
2019-05-06T04:12:48.182Z,7.07
2019-05-06T04:15:17.861Z,6.77
2019-05-06T04:17:48.995Z,5.93
2019-05-06T04:20:26.111Z,6.47
2019-05-06T04:23:06.288Z,5.90
2019-05-06T04:25:40.013Z,6.10
2019-05-06T04:28:23.571Z,6.20
2019-05-06T04:30:54.561Z,6.37
2019-05-06T04:33:23.800Z,5.90
2019-05-06T04:35:54.244Z,6.60
2019-05-06T04:38:24.123Z,6.50
2019-05-06T04:40:54.536Z,6.43
2019-05-06T04:43:26.681Z,6.43
2019-05-06T04:45:55.416Z,6.17
2019-05-06T04:48:25.041Z,6.50
2019-05-06T04:50:54.636Z,6.37
2019-05-06T04:53:26.967Z,6.27
2019-05-06T04:55:55.605Z,5.97
2019-05-06T04:58:25.969Z,6.10
2019-05-06T05:00:56.291Z,5.73
2019-05-06T05:03:26.187Z,6.40
2019-05-06T05:05:55.774Z,6.27
2019-05-06T05:08:27.001Z,6.70
2019-05-06T05:11:03.609Z,5.73
2019-05-06T05:13:43.391Z,6.50
2019-05-06T05:16:23.788Z,6.10
2019-05-06T05:19:07.303Z,5.93
2019-05-06T05:21:36.712Z,6.47
2019-05-06T05:24:06.214Z,6.20
2019-05-06T05:26:37.145Z,6.20
2019-05-06T05:29:06.651Z,5.97
2019-05-06T05:31:37.638Z,5.60
2019-05-06T05:34:07.299Z,5.73
2019-05-06T05:36:36.790Z,5.70
2019-05-06T05:39:07.540Z,5.80
2019-05-06T05:41:37.141Z,5.67
2019-05-06T05:44:08.378Z,5.10
2019-05-06T05:46:38.756Z,5.80
2019-05-06T05:49:12.005Z,5.07
2019-05-06T05:51:42.585Z,5.00
2019-05-06T05:54:13.062Z,5.17
2019-05-06T05:56:43.154Z,5.27
2019-05-06T05:59:12.814Z,5.50
2019-05-06T06:01:43.474Z,4.93
2019-05-06T06:04:13.178Z,5.00
2019-05-06T06:06:42.804Z,5.27
2019-05-06T06:09:12.767Z,5.27
2019-05-06T06:11:44.940Z,5.20
2019-05-06T06:14:33.293Z,5.97
2019-05-06T06:17:12.976Z,5.60
2019-05-06T06:19:57.388Z,6.33
2019-05-06T06:22:28.509Z,5.63
2019-05-06T06:24:58.056Z,5.57
2019-05-06T06:27:29.113Z,6.53
2019-05-06T06:29:59.715Z,5.67
2019-05-06T06:32:32.554Z,5.07
2019-05-06T06:35:10.530Z,4.23
2019-05-06T06:37:39.602Z,3.10
2019-05-06T06:40:12.983Z,2.20
2019-05-06T06:42:42.767Z,2.00
2019-05-06T06:45:12.609Z,2.03
2019-05-06T06:47:42.582Z,1.93
2019-05-06T06:50:12.664Z,2.17
2019-05-06T06:52:42.552Z,2.30
2019-05-06T06:55:12.980Z,2.33
2019-05-06T06:57:47.436Z,2.30
2019-05-06T07:00:18.737Z,2.10
2019-05-06T07:02:49.991Z,2.50
2019-05-06T07:05:30.260Z,2.97
2019-05-06T07:08:02.051Z,2.90
2019-05-06T07:10:43.156Z,2.50
2019-05-06T07:13:14.203Z,3.17
2019-05-06T07:15:44.729Z,2.70
2019-05-06T07:18:14.163Z,2.60
2019-05-06T07:20:48.092Z,2.80
2019-05-06T07:23:22.187Z,3.13
2019-05-06T07:25:53.702Z,2.80
2019-05-06T07:28:26.355Z,3.20
2019-05-06T07:30:56.455Z,3.13
2019-05-06T07:33:25.928Z,3.83
2019-05-06T07:35:55.466Z,3.40
2019-05-06T07:38:24.871Z,3.80
2019-05-06T07:40:56.591Z,3.90
2019-05-06T07:43:27.647Z,4.00
2019-05-06T07:45:58.801Z,3.83
2019-05-06T07:48:28.211Z,4.60
2019-05-06T07:50:58.959Z,4.80
2019-05-06T07:53:28.534Z,4.63
2019-05-06T07:55:59.659Z,5.00
2019-05-06T07:58:29.130Z,5.27
2019-05-06T08:01:02.441Z,4.70
2019-05-06T08:03:32.953Z,5.20
2019-05-06T08:06:02.735Z,4.83
2019-05-06T08:08:33.633Z,5.13
2019-05-06T08:11:05.176Z,5.30
2019-05-06T08:13:34.581Z,5.10
2019-05-06T08:16:04.378Z,4.40
2019-05-06T08:18:33.872Z,4.60
2019-05-06T08:21:05.029Z,4.40
2019-05-06T08:23:45.027Z,4.17
2019-05-06T08:26:17.615Z,3.67
2019-05-06T08:28:45.642Z,4.10
2019-05-06T08:31:16.826Z,3.73
2019-05-06T08:33:46.228Z,4.00
2019-05-06T08:36:17.782Z,3.40
2019-05-06T08:39:02.544Z,3.77
2019-05-06T08:41:33.191Z,3.83
2019-05-06T08:44:02.884Z,4.13
2019-05-06T08:46:32.959Z,4.17
2019-05-06T08:49:03.271Z,4.90
2019-05-06T08:51:37.180Z,5.23
2019-05-06T08:54:08.336Z,4.70
2019-05-06T08:56:38.078Z,5.10
2019-05-06T08:59:07.490Z,4.90
2019-05-06T09:01:47.769Z,5.53
2019-05-06T09:04:17.270Z,5.33
2019-05-06T09:06:46.896Z,3.93
2019-05-06T09:09:16.294Z,4.57
2019-05-06T09:11:45.764Z,4.70
2019-05-06T09:14:15.230Z,4.90
2019-05-06T09:16:44.901Z,4.07
2019-05-06T09:19:14.379Z,3.93
2019-05-06T09:21:46.317Z,3.27
2019-05-06T09:24:15.121Z,2.97
2019-05-06T09:26:46.196Z,3.00
2019-05-06T09:29:35.692Z,2.80
2019-05-06T09:32:09.648Z,3.00
2019-05-06T09:34:42.877Z,3.60
2019-05-06T09:37:14.672Z,2.80
2019-05-06T09:39:45.643Z,3.40
2019-05-06T09:42:15.699Z,3.37
2019-05-06T09:44:50.303Z,3.00
2019-05-06T09:47:19.561Z,3.60
2019-05-06T09:49:49.338Z,3.30
2019-05-06T09:52:19.927Z,3.13
2019-05-06T09:54:57.094Z,3.50
2019-05-06T09:57:34.219Z,3.37
2019-05-06T10:00:05.471Z,2.93
2019-05-06T10:02:34.918Z,3.13
2019-05-06T10:05:06.047Z,2.57
2019-05-06T10:07:35.507Z,2.80
2019-05-06T10:10:05.946Z,2.93
2019-05-06T10:12:35.603Z,2.70
2019-05-06T10:15:05.811Z,2.33
2019-05-06T10:17:35.247Z,2.43
2019-05-06T10:20:06.620Z,2.00
2019-05-06T10:22:36.071Z,1.83
2019-05-06T10:25:06.280Z,2.10
2019-05-06T10:27:37.139Z,2.10
2019-05-06T10:30:12.551Z,2.00
2019-05-06T10:32:46.751Z,2.30
2019-05-06T10:35:16.564Z,1.83
2019-05-06T10:38:05.379Z,2.43
2019-05-06T10:40:55.174Z,3.13
2019-05-06T10:43:27.105Z,3.33
2019-05-06T10:45:56.561Z,2.83
2019-05-06T10:48:26.253Z,2.47
2019-05-06T10:50:57.395Z,2.50
2019-05-06T10:53:26.859Z,2.30
2019-05-06T10:55:58.010Z,2.10
2019-05-06T10:58:27.516Z,2.17
2019-05-06T11:01:05.251Z,2.27
2019-05-06T11:03:34.673Z,2.20
2019-05-06T11:06:04.385Z,2.10
2019-05-06T11:08:34.025Z,3.07
2019-05-06T11:11:14.829Z,2.53
2019-05-06T11:13:34.661Z,2.00
2019-05-06T11:16:04.315Z,2.00
2019-05-06T11:18:35.460Z,2.37
2019-05-06T11:21:04.888Z,2.60
2019-05-06T11:23:34.305Z,2.10
2019-05-06T11:26:04.072Z,2.30
2019-05-06T11:28:42.595Z,2.40
2019-05-06T11:31:16.881Z,2.73
2019-05-06T11:33:55.464Z,2.70
2019-05-06T11:36:38.476Z,2.60
2019-05-06T11:39:08.546Z,2.27
2019-05-06T11:41:38.223Z,1.93
2019-05-06T11:44:09.209Z,2.20
2019-05-06T11:46:38.825Z,1.97
2019-05-06T11:49:12.292Z,2.03
2019-05-06T11:51:43.543Z,2.40
2019-05-06T11:54:17.440Z,2.30
2019-05-06T11:56:50.777Z,3.00
2019-05-06T11:59:27.750Z,2.70
2019-05-06T12:02:07.966Z,2.33
2019-05-06T12:04:38.964Z,2.30
2019-05-06T12:07:15.513Z,2.70
2019-05-06T12:09:41.393Z,2.50
2019-05-06T12:12:12.748Z,2.80
2019-05-06T12:14:42.992Z,2.33
2019-05-06T12:17:12.869Z,2.80
2019-05-06T12:19:43.903Z,2.87
2019-05-06T12:22:13.528Z,3.40
2019-05-06T12:24:43.267Z,3.30
2019-05-06T12:27:14.569Z,3.77
2019-05-06T12:29:44.291Z,3.57
2019-05-06T12:32:16.059Z,3.57
2019-05-06T12:34:45.530Z,3.27
2019-05-06T12:37:17.356Z,3.20
2019-05-06T12:39:48.527Z,3.30
2019-05-06T12:42:28.697Z,3.23
2019-05-06T12:45:03.268Z,3.50
2019-05-06T12:47:35.640Z,2.97
2019-05-06T12:50:06.503Z,3.10
2019-05-06T12:52:35.949Z,3.37
2019-05-06T12:55:18.370Z,3.00
2019-05-06T12:57:38.305Z,3.50
2019-05-06T13:00:12.756Z,3.40
2019-05-06T13:02:43.389Z,3.00
2019-05-06T13:05:12.605Z,2.93
2019-05-06T13:07:46.777Z,2.30
2019-05-06T13:10:18.873Z,2.50
2019-05-06T13:12:49.954Z,2.37
2019-05-06T13:15:19.428Z,2.17
2019-05-06T13:17:49.037Z,2.70
2019-05-06T13:20:18.518Z,2.50
2019-05-06T13:22:55.963Z,2.53
2019-05-06T13:25:25.437Z,2.60
2019-05-06T13:27:54.888Z,2.30
2019-05-06T13:30:26.015Z,3.13
2019-05-06T13:32:57.185Z,2.57
2019-05-06T13:35:26.623Z,2.60
2019-05-06T13:37:57.715Z,2.60
2019-05-06T13:40:27.462Z,2.10
2019-05-06T13:43:00.101Z,2.30
2019-05-06T13:45:32.461Z,2.30
2019-05-06T13:48:03.824Z,2.20
2019-05-06T13:50:34.860Z,2.00
2019-05-06T13:53:11.427Z,1.87
2019-05-06T13:55:36.792Z,1.97
2019-05-06T13:58:06.285Z,2.13
2019-05-06T14:00:36.767Z,1.57
2019-05-06T14:03:06.159Z,1.70
2019-05-06T14:05:35.746Z,1.70
2019-05-06T14:08:05.223Z,1.97
2019-05-06T14:10:34.667Z,1.60
2019-05-06T14:13:04.072Z,2.10
2019-05-06T14:15:33.588Z,1.80
2019-05-06T14:18:04.563Z,1.70
2019-05-06T14:20:34.146Z,1.90
2019-05-06T14:23:03.559Z,1.73
2019-05-06T14:25:44.956Z,1.50
2019-05-06T14:28:28.000Z,1.30
2019-05-06T14:31:04.778Z,1.40
2019-05-06T14:33:34.217Z,2.00
2019-05-06T14:36:03.660Z,2.10
2019-05-06T14:38:33.338Z,2.80
2019-05-06T14:41:07.906Z,2.67
2019-05-06T14:43:35.652Z,3.10
2019-05-06T14:46:05.325Z,3.20
2019-05-06T14:48:34.861Z,3.23
2019-05-06T14:51:04.313Z,3.20
2019-05-06T14:53:33.799Z,3.30
2019-05-06T14:56:10.499Z,2.80
2019-05-06T14:58:40.148Z,2.70
2019-05-06T15:01:09.625Z,3.00
2019-05-06T15:03:39.882Z,2.77
2019-05-06T15:06:09.325Z,3.03
2019-05-06T15:08:38.799Z,2.97
2019-05-06T15:11:08.234Z,3.10
2019-05-06T15:13:38.045Z,3.63
2019-05-06T15:16:07.624Z,3.37
2019-05-06T15:18:37.065Z,2.70
2019-05-06T15:21:32.344Z,3.00
2019-05-06T15:23:42.426Z,3.10
2019-05-06T15:26:12.293Z,2.57
2019-05-06T15:28:42.573Z,2.60
2019-05-06T15:31:16.370Z,2.87
2019-05-06T15:33:48.311Z,3.17
2019-05-06T15:36:19.438Z,2.80
2019-05-06T15:38:48.870Z,2.70
2019-05-06T15:41:18.358Z,2.70
2019-05-06T15:43:47.802Z,2.60
2019-05-06T15:46:17.202Z,2.10
2019-05-06T15:48:46.618Z,2.27
2019-05-06T15:51:17.663Z,2.13
2019-05-06T15:53:47.101Z,2.70
2019-05-06T15:56:16.538Z,2.20
2019-05-06T15:58:47.484Z,3.00
2019-05-06T16:01:16.917Z,2.60
2019-05-06T16:03:46.617Z,2.60
2019-05-06T16:06:16.061Z,2.77
2019-05-06T16:08:46.123Z,3.10
2019-05-06T16:11:15.559Z,2.37
2019-05-06T16:13:45.246Z,2.73
2019-05-06T16:16:14.655Z,2.63
2019-05-06T16:18:44.343Z,2.20
2019-05-06T16:21:15.542Z,2.43
2019-05-06T16:23:46.627Z,2.40
2019-05-06T16:26:16.019Z,2.17
2019-05-06T16:28:45.741Z,2.50
2019-05-06T16:31:15.151Z,2.03
2019-05-06T16:33:44.665Z,2.00
2019-05-06T16:36:14.140Z,1.93
2019-05-06T16:38:46.693Z,2.23
2019-05-06T16:41:16.459Z,1.90
2019-05-06T16:43:45.972Z,2.00
2019-05-06T16:46:15.401Z,1.90
2019-05-06T16:48:45.450Z,1.90
2019-05-06T16:51:15.117Z,2.00
2019-05-06T16:53:46.173Z,2.10
2019-05-06T16:56:23.472Z,1.90
2019-05-06T16:58:54.634Z,1.90
2019-05-06T17:01:24.183Z,2.13
2019-05-06T17:04:14.266Z,2.17
2019-05-06T17:06:43.883Z,2.00
2019-05-06T17:09:20.702Z,2.00
2019-05-06T17:11:46.301Z,1.80
2019-05-06T17:14:15.701Z,2.03
2019-05-06T17:16:45.379Z,1.80
2019-05-06T17:19:14.788Z,1.97
2019-05-06T17:21:48.209Z,2.33
2019-05-06T17:24:16.414Z,2.73
2019-05-06T17:26:47.055Z,2.30
2019-05-06T17:29:24.378Z,4.23
2019-05-06T17:32:02.559Z,2.90
2019-05-06T17:34:33.658Z,2.77
2019-05-06T17:37:07.178Z,2.93
2019-05-06T17:39:36.663Z,3.20
2019-05-06T17:42:06.285Z,2.80
2019-05-06T17:44:35.705Z,1.83
2019-05-06T17:47:22.891Z,2.10
2019-05-06T17:49:54.068Z,2.03
2019-05-06T17:52:24.789Z,2.67
2019-05-06T17:54:54.243Z,2.33
2019-05-06T17:57:23.797Z,2.30
2019-05-06T17:59:53.347Z,2.17
2019-05-06T18:02:24.423Z,2.40
2019-05-06T18:04:53.831Z,2.33
2019-05-06T18:07:24.554Z,3.03
2019-05-06T18:09:53.958Z,2.70
2019-05-06T18:12:23.482Z,2.57
2019-05-06T18:14:53.533Z,2.53
2019-05-06T18:17:23.012Z,2.60
2019-05-06T18:19:52.417Z,2.57
2019-05-06T18:22:22.694Z,2.67
2019-05-06T18:24:52.657Z,2.70
2019-05-06T18:27:22.733Z,2.47
2019-05-06T18:29:53.290Z,2.40
2019-05-06T18:32:23.452Z,2.60
2019-05-06T18:34:52.934Z,2.17
2019-05-06T18:37:23.395Z,2.30
2019-05-06T18:39:53.136Z,2.30
2019-05-06T18:42:23.706Z,2.87
2019-05-06T18:44:53.194Z,2.50
2019-05-06T18:47:22.629Z,2.77
2019-05-06T18:49:52.492Z,2.80
2019-05-06T18:52:22.890Z,2.70
2019-05-06T18:54:52.618Z,3.07
2019-05-06T18:57:22.702Z,2.73
2019-05-06T18:59:53.261Z,2.50
2019-05-06T19:02:23.109Z,2.47
2019-05-06T19:04:55.064Z,2.27
2019-05-06T19:07:24.515Z,2.57
2019-05-06T19:09:55.590Z,2.80
2019-05-06T19:12:31.646Z,2.77
2019-05-06T19:14:56.442Z,3.07
2019-05-06T19:17:25.905Z,2.87
2019-05-06T19:19:55.613Z,2.80
2019-05-06T19:22:25.046Z,2.53
2019-05-06T19:24:54.485Z,2.53
2019-05-06T19:27:24.936Z,2.43
2019-05-06T19:29:54.838Z,2.87
2019-05-06T19:32:25.613Z,2.70
2019-05-06T19:34:55.091Z,2.90
2019-05-06T19:37:24.557Z,3.00
2019-05-06T19:39:54.140Z,2.63
2019-05-06T19:42:24.974Z,2.53
2019-05-06T19:44:54.450Z,2.83
2019-05-06T19:47:23.881Z,3.07
2019-05-06T19:49:53.441Z,2.90
2019-05-06T19:52:24.961Z,2.90
2019-05-06T19:54:53.924Z,2.57
2019-05-06T19:57:23.445Z,2.83
2019-05-06T19:59:52.913Z,2.40
2019-05-06T20:02:25.597Z,2.73
2019-05-06T20:04:59.262Z,2.60
2019-05-06T20:07:30.406Z,2.60
2019-05-06T20:10:03.337Z,3.13
2019-05-06T20:12:35.414Z,2.90
2019-05-06T20:15:24.233Z,2.73
2019-05-06T20:17:53.677Z,2.60
2019-05-06T20:20:23.087Z,2.47
2019-05-06T20:22:52.514Z,2.67
2019-05-06T20:25:22.136Z,2.63
2019-05-06T20:27:53.040Z,2.77
2019-05-06T20:30:22.572Z,2.73
2019-05-06T20:32:52.743Z,2.50
2019-05-06T20:35:22.451Z,2.70
2019-05-06T20:37:53.399Z,3.03
2019-05-06T20:40:23.254Z,2.53
2019-05-06T20:42:52.758Z,3.20
2019-05-06T20:45:23.703Z,2.67
2019-05-06T20:47:53.244Z,2.57
2019-05-06T20:50:22.777Z,3.10
2019-05-06T20:52:52.423Z,2.80
2019-05-06T20:55:22.922Z,2.83
2019-05-06T20:57:53.009Z,2.60
2019-05-06T21:00:22.675Z,3.10
2019-05-06T21:02:53.476Z,2.90
2019-05-06T21:05:23.067Z,3.30
2019-05-06T21:07:52.779Z,4.20
2019-05-06T21:10:22.448Z,4.83
2019-05-06T21:12:53.283Z,9.13
2019-05-06T21:15:23.131Z,8.27
2019-05-06T21:17:52.615Z,6.93
2019-05-06T21:20:22.162Z,5.60
2019-05-06T21:22:52.799Z,3.90
2019-05-06T21:25:22.731Z,3.97
2019-05-06T21:27:53.237Z,4.70
2019-05-06T21:30:22.807Z,3.30
2019-05-06T21:32:52.251Z,3.97
2019-05-06T21:35:22.298Z,3.93
2019-05-06T21:37:52.937Z,4.00
2019-05-06T21:40:22.444Z,4.30
2019-05-06T21:42:51.873Z,4.60
2019-05-06T21:45:22.161Z,5.00
2019-05-06T21:47:53.018Z,5.17
2019-05-06T21:50:22.851Z,5.00
2019-05-06T21:52:52.394Z,4.00
2019-05-06T21:55:22.712Z,4.30
2019-05-06T21:57:52.988Z,6.23
2019-05-06T22:00:24.729Z,5.30
2019-05-06T22:02:54.161Z,5.30
2019-05-06T22:05:23.606Z,5.13
2019-05-06T22:07:53.071Z,4.87
2019-05-06T22:10:22.785Z,4.83
2019-05-06T22:12:53.688Z,5.37
2019-05-06T22:15:23.172Z,5.03
2019-05-06T22:17:54.442Z,5.03
2019-05-06T22:20:23.900Z,4.70
2019-05-06T22:22:53.345Z,4.90
2019-05-06T22:25:22.762Z,3.93
2019-05-06T22:27:52.211Z,4.10
2019-05-06T22:30:23.830Z,4.60
2019-05-06T22:32:52.893Z,4.13
2019-05-06T22:35:23.078Z,4.03
2019-05-06T22:37:53.077Z,3.80
2019-05-06T22:40:23.836Z,4.30
2019-05-06T22:42:53.437Z,4.00
2019-05-06T22:45:22.830Z,4.17
2019-05-06T22:47:54.206Z,4.23
2019-05-06T22:50:23.618Z,3.90
2019-05-06T22:52:53.058Z,4.50
2019-05-06T22:55:22.469Z,4.10
2019-05-06T22:57:52.931Z,4.00
2019-05-06T23:00:24.087Z,4.13
2019-05-06T23:02:58.281Z,4.20
2019-05-06T23:05:27.702Z,3.93
2019-05-06T23:07:57.248Z,5.60
2019-05-06T23:10:26.693Z,5.03
2019-05-06T23:12:56.814Z,4.60
2019-05-06T23:15:26.522Z,5.83
2019-05-06T23:17:56.007Z,6.80
2019-05-06T23:20:25.628Z,6.80
2019-05-06T23:22:55.119Z,7.87
2019-05-06T23:25:24.570Z,6.43
2019-05-06T23:27:53.983Z,6.07
2019-05-06T23:30:23.718Z,5.00
2019-05-06T23:32:53.182Z,4.50
2019-05-06T23:35:22.605Z,4.83
2019-05-06T23:38:28.576Z,5.13
2019-05-06T23:41:34.404Z,4.70
2019-05-06T23:44:45.621Z,4.50
2019-05-06T23:47:48.202Z,6.53
2019-05-06T23:50:54.191Z,5.27
2019-05-06T23:54:00.191Z,4.53
2019-05-06T23:56:43.478Z,3.93
2019-05-06T23:59:17.729Z,4.07
